sensor_id;sensor_type;location;lat;lon;timestamp;P1;durP1;ratioP1;P2;durP2;ratioP2
27412;SDS011;14871;52.702;5.230;2022-09-29T00:01:09;2.92;;;2.05;;
27412;SDS011;14871;52.702;5.230;2022-09-29T00:03:35;3.00;;;2.28;;
27412;SDS011;14871;52.702;5.230;2022-09-29T00:06:00;2.30;;;2.00;;
27412;SDS011;14871;52.702;5.230;2022-09-29T00:08:27;2.20;;;2.00;;
27412;SDS011;14871;52.702;5.230;2022-09-29T00:10:55;3.22;;;2.17;;
27412;SDS011;14871;52.702;5.230;2022-09-29T00:13:21;3.85;;;1.88;;
27412;SDS011;14871;52.702;5.230;2022-09-29T00:15:56;2.70;;;2.10;;
27412;SDS011;14871;52.702;5.230;2022-09-29T00:18:23;3.33;;;1.92;;
27412;SDS011;14871;52.702;5.230;2022-09-29T00:21:02;2.95;;;1.90;;
27412;SDS011;14871;52.702;5.230;2022-09-29T00:23:33;4.13;;;2.03;;
27412;SDS011;14871;52.702;5.230;2022-09-29T00:26:00;4.85;;;2.05;;
27412;SDS011;14871;52.702;5.230;2022-09-29T00:28:27;3.00;;;1.90;;
27412;SDS011;14871;52.702;5.230;2022-09-29T00:30:53;2.25;;;1.73;;
27412;SDS011;14871;52.702;5.230;2022-09-29T00:33:18;3.03;;;2.05;;
27412;SDS011;14871;52.702;5.230;2022-09-29T00:35:44;2.35;;;1.90;;
27412;SDS011;14871;52.702;5.230;2022-09-29T00:40:45;3.03;;;1.77;;
27412;SDS011;14871;52.702;5.230;2022-09-29T00:43:10;2.88;;;2.58;;
27412;SDS011;14871;52.702;5.230;2022-09-29T00:45:43;3.22;;;2.42;;
27412;SDS011;14871;52.702;5.230;2022-09-29T00:48:11;3.05;;;2.15;;
27412;SDS011;14871;52.702;5.230;2022-09-29T00:53:10;4.53;;;2.40;;
27412;SDS011;14871;52.702;5.230;2022-09-29T00:55:40;2.92;;;2.28;;
27412;SDS011;14871;52.702;5.230;2022-09-29T00:58:15;4.63;;;2.45;;
27412;SDS011;14871;52.702;5.230;2022-09-29T01:00:49;5.25;;;2.67;;
27412;SDS011;14871;52.702;5.230;2022-09-29T01:03:16;2.97;;;2.45;;
27412;SDS011;14871;52.702;5.230;2022-09-29T01:05:46;5.43;;;3.17;;
27412;SDS011;14871;52.702;5.230;2022-09-29T01:08:40;5.63;;;3.65;;
27412;SDS011;14871;52.702;5.230;2022-09-29T01:11:10;4.20;;;3.50;;
27412;SDS011;14871;52.702;5.230;2022-09-29T01:13:36;5.10;;;3.83;;
27412;SDS011;14871;52.702;5.230;2022-09-29T01:16:03;5.72;;;3.88;;
27412;SDS011;14871;52.702;5.230;2022-09-29T01:18:29;7.70;;;3.70;;
27412;SDS011;14871;52.702;5.230;2022-09-29T01:27:00;7.32;;;4.65;;
27412;SDS011;14871;52.702;5.230;2022-09-29T01:29:46;6.45;;;5.43;;
27412;SDS011;14871;52.702;5.230;2022-09-29T01:37:51;7.95;;;6.57;;
27412;SDS011;14871;52.702;5.230;2022-09-29T01:43:31;9.52;;;7.57;;
27412;SDS011;14871;52.702;5.230;2022-09-29T01:46:03;11.38;;;6.88;;
27412;SDS011;14871;52.702;5.230;2022-09-29T01:48:39;8.85;;;7.20;;
27412;SDS011;14871;52.702;5.230;2022-09-29T01:51:11;9.43;;;7.60;;
27412;SDS011;14871;52.702;5.230;2022-09-29T01:53:41;8.07;;;7.03;;
27412;SDS011;14871;52.702;5.230;2022-09-29T01:56:13;8.70;;;7.10;;
27412;SDS011;14871;52.702;5.230;2022-09-29T02:01:26;8.25;;;6.63;;
27412;SDS011;14871;52.702;5.230;2022-09-29T02:03:56;10.65;;;8.32;;
27412;SDS011;14871;52.702;5.230;2022-09-29T02:06:35;10.32;;;8.30;;
27412;SDS011;14871;52.702;5.230;2022-09-29T02:09:09;11.23;;;7.50;;
27412;SDS011;14871;52.702;5.230;2022-09-29T02:11:41;12.15;;;8.40;;
27412;SDS011;14871;52.702;5.230;2022-09-29T02:14:14;8.73;;;7.35;;
27412;SDS011;14871;52.702;5.230;2022-09-29T02:16:48;10.90;;;7.57;;
27412;SDS011;14871;52.702;5.230;2022-09-29T02:19:26;10.05;;;8.45;;
27412;SDS011;14871;52.702;5.230;2022-09-29T02:21:55;9.88;;;8.00;;
27412;SDS011;14871;52.702;5.230;2022-09-29T02:24:22;10.05;;;7.95;;
27412;SDS011;14871;52.702;5.230;2022-09-29T02:26:48;10.20;;;7.68;;
27412;SDS011;14871;52.702;5.230;2022-09-29T02:29:14;10.18;;;7.57;;
27412;SDS011;14871;52.702;5.230;2022-09-29T02:31:42;9.00;;;7.63;;
27412;SDS011;14871;52.702;5.230;2022-09-29T02:34:10;8.80;;;7.90;;
27412;SDS011;14871;52.702;5.230;2022-09-29T02:36:42;11.02;;;7.72;;
27412;SDS011;14871;52.702;5.230;2022-09-29T02:39:42;9.18;;;7.18;;
27412;SDS011;14871;52.702;5.230;2022-09-29T02:55:53;10.35;;;8.00;;
27412;SDS011;14871;52.702;5.230;2022-09-29T02:58:49;8.82;;;7.45;;
27412;SDS011;14871;52.702;5.230;2022-09-29T03:01:25;8.63;;;7.35;;
27412;SDS011;14871;52.702;5.230;2022-09-29T03:03:55;10.15;;;8.23;;
27412;SDS011;14871;52.702;5.230;2022-09-29T03:06:20;9.80;;;8.00;;
27412;SDS011;14871;52.702;5.230;2022-09-29T03:08:46;9.77;;;8.30;;
27412;SDS011;14871;52.702;5.230;2022-09-29T03:11:12;9.07;;;7.72;;
27412;SDS011;14871;52.702;5.230;2022-09-29T03:13:37;8.50;;;7.32;;
27412;SDS011;14871;52.702;5.230;2022-09-29T03:16:03;10.00;;;7.57;;
27412;SDS011;14871;52.702;5.230;2022-09-29T03:18:28;7.75;;;6.95;;
27412;SDS011;14871;52.702;5.230;2022-09-29T03:20:54;9.82;;;7.68;;
27412;SDS011;14871;52.702;5.230;2022-09-29T03:23:20;12.77;;;8.15;;
27412;SDS011;14871;52.702;5.230;2022-09-29T03:25:46;8.45;;;7.57;;
27412;SDS011;14871;52.702;5.230;2022-09-29T03:28:11;9.48;;;7.70;;
27412;SDS011;14871;52.702;5.230;2022-09-29T03:30:37;8.30;;;6.90;;
27412;SDS011;14871;52.702;5.230;2022-09-29T03:33:03;8.32;;;6.93;;
27412;SDS011;14871;52.702;5.230;2022-09-29T03:35:28;8.82;;;7.20;;
27412;SDS011;14871;52.702;5.230;2022-09-29T03:37:58;10.98;;;7.50;;
27412;SDS011;14871;52.702;5.230;2022-09-29T03:40:25;8.13;;;7.10;;
27412;SDS011;14871;52.702;5.230;2022-09-29T03:42:51;9.13;;;7.47;;
27412;SDS011;14871;52.702;5.230;2022-09-29T03:45:17;8.90;;;7.40;;
27412;SDS011;14871;52.702;5.230;2022-09-29T03:47:43;10.52;;;7.43;;
27412;SDS011;14871;52.702;5.230;2022-09-29T03:50:08;8.70;;;7.50;;
27412;SDS011;14871;52.702;5.230;2022-09-29T03:52:34;10.85;;;7.65;;
27412;SDS011;14871;52.702;5.230;2022-09-29T03:55:00;8.60;;;7.03;;
27412;SDS011;14871;52.702;5.230;2022-09-29T03:57:25;9.45;;;7.25;;
27412;SDS011;14871;52.702;5.230;2022-09-29T03:59:51;8.68;;;7.47;;
27412;SDS011;14871;52.702;5.230;2022-09-29T04:02:17;9.73;;;7.47;;
27412;SDS011;14871;52.702;5.230;2022-09-29T04:04:43;8.10;;;7.30;;
27412;SDS011;14871;52.702;5.230;2022-09-29T04:07:09;8.30;;;6.82;;
27412;SDS011;14871;52.702;5.230;2022-09-29T04:09:35;8.88;;;7.60;;
27412;SDS011;14871;52.702;5.230;2022-09-29T04:12:01;9.30;;;7.57;;
27412;SDS011;14871;52.702;5.230;2022-09-29T04:14:27;10.05;;;8.10;;
27412;SDS011;14871;52.702;5.230;2022-09-29T04:16:52;10.13;;;7.63;;
27412;SDS011;14871;52.702;5.230;2022-09-29T04:19:18;9.23;;;7.50;;
27412;SDS011;14871;52.702;5.230;2022-09-29T04:21:43;8.82;;;7.47;;
27412;SDS011;14871;52.702;5.230;2022-09-29T04:24:10;10.73;;;8.35;;
27412;SDS011;14871;52.702;5.230;2022-09-29T04:26:35;12.60;;;8.20;;
27412;SDS011;14871;52.702;5.230;2022-09-29T04:29:01;11.07;;;8.38;;
27412;SDS011;14871;52.702;5.230;2022-09-29T04:31:27;9.35;;;7.60;;
27412;SDS011;14871;52.702;5.230;2022-09-29T04:33:52;9.52;;;7.88;;
27412;SDS011;14871;52.702;5.230;2022-09-29T04:36:18;11.45;;;8.82;;
27412;SDS011;14871;52.702;5.230;2022-09-29T04:38:44;10.68;;;8.27;;
27412;SDS011;14871;52.702;5.230;2022-09-29T04:41:09;10.13;;;8.68;;
27412;SDS011;14871;52.702;5.230;2022-09-29T04:43:35;10.90;;;7.85;;
27412;SDS011;14871;52.702;5.230;2022-09-29T04:46:04;9.52;;;7.88;;
27412;SDS011;14871;52.702;5.230;2022-09-29T04:48:31;10.20;;;8.05;;
27412;SDS011;14871;52.702;5.230;2022-09-29T04:50:58;11.25;;;9.27;;
27412;SDS011;14871;52.702;5.230;2022-09-29T04:53:23;12.23;;;10.23;;
27412;SDS011;14871;52.702;5.230;2022-09-29T04:55:49;12.88;;;10.25;;
27412;SDS011;14871;52.702;5.230;2022-09-29T04:58:14;12.18;;;10.35;;
27412;SDS011;14871;52.702;5.230;2022-09-29T05:00:40;13.15;;;9.50;;
27412;SDS011;14871;52.702;5.230;2022-09-29T05:03:06;12.00;;;9.13;;
27412;SDS011;14871;52.702;5.230;2022-09-29T05:05:31;12.70;;;9.13;;
27412;SDS011;14871;52.702;5.230;2022-09-29T05:07:57;12.10;;;8.68;;
27412;SDS011;14871;52.702;5.230;2022-09-29T05:10:23;11.68;;;9.55;;
27412;SDS011;14871;52.702;5.230;2022-09-29T05:12:50;13.27;;;9.52;;
27412;SDS011;14871;52.702;5.230;2022-09-29T05:15:16;12.32;;;10.20;;
27412;SDS011;14871;52.702;5.230;2022-09-29T05:17:42;12.70;;;9.43;;
27412;SDS011;14871;52.702;5.230;2022-09-29T05:20:08;10.90;;;9.32;;
27412;SDS011;14871;52.702;5.230;2022-09-29T05:22:34;11.23;;;9.63;;
27412;SDS011;14871;52.702;5.230;2022-09-29T05:25:00;11.30;;;9.73;;
27412;SDS011;14871;52.702;5.230;2022-09-29T05:27:25;11.85;;;9.23;;
27412;SDS011;14871;52.702;5.230;2022-09-29T05:29:51;13.25;;;9.27;;
27412;SDS011;14871;52.702;5.230;2022-09-29T05:32:16;10.90;;;9.43;;
27412;SDS011;14871;52.702;5.230;2022-09-29T05:34:42;11.85;;;9.48;;
27412;SDS011;14871;52.702;5.230;2022-09-29T05:37:08;13.75;;;9.43;;
27412;SDS011;14871;52.702;5.230;2022-09-29T05:39:33;11.52;;;9.75;;
27412;SDS011;14871;52.702;5.230;2022-09-29T05:42:01;11.77;;;9.23;;
27412;SDS011;14871;52.702;5.230;2022-09-29T05:44:27;15.93;;;9.57;;
27412;SDS011;14871;52.702;5.230;2022-09-29T05:46:53;13.15;;;9.70;;
27412;SDS011;14871;52.702;5.230;2022-09-29T05:49:19;12.95;;;9.38;;
27412;SDS011;14871;52.702;5.230;2022-09-29T05:51:45;14.18;;;9.65;;
27412;SDS011;14871;52.702;5.230;2022-09-29T05:54:10;11.85;;;9.68;;
27412;SDS011;14871;52.702;5.230;2022-09-29T05:56:36;12.70;;;8.95;;
27412;SDS011;14871;52.702;5.230;2022-09-29T05:59:02;11.18;;;9.25;;
27412;SDS011;14871;52.702;5.230;2022-09-29T06:01:27;10.60;;;9.50;;
27412;SDS011;14871;52.702;5.230;2022-09-29T06:03:55;13.50;;;9.93;;
27412;SDS011;14871;52.702;5.230;2022-09-29T06:06:22;11.23;;;9.73;;
27412;SDS011;14871;52.702;5.230;2022-09-29T06:08:50;12.18;;;9.82;;
27412;SDS011;14871;52.702;5.230;2022-09-29T06:11:21;13.60;;;9.95;;
27412;SDS011;14871;52.702;5.230;2022-09-29T06:13:48;11.90;;;10.02;;
27412;SDS011;14871;52.702;5.230;2022-09-29T06:16:19;11.32;;;9.07;;
27412;SDS011;14871;52.702;5.230;2022-09-29T06:18:46;13.52;;;10.98;;
27412;SDS011;14871;52.702;5.230;2022-09-29T06:21:13;16.85;;;11.43;;
27412;SDS011;14871;52.702;5.230;2022-09-29T06:23:40;13.30;;;9.85;;
27412;SDS011;14871;52.702;5.230;2022-09-29T06:26:07;13.10;;;10.13;;
27412;SDS011;14871;52.702;5.230;2022-09-29T06:28:34;13.07;;;10.95;;
27412;SDS011;14871;52.702;5.230;2022-09-29T06:31:04;12.52;;;10.52;;
27412;SDS011;14871;52.702;5.230;2022-09-29T06:33:37;12.25;;;10.27;;
27412;SDS011;14871;52.702;5.230;2022-09-29T06:36:05;15.82;;;10.77;;
27412;SDS011;14871;52.702;5.230;2022-09-29T06:38:53;12.23;;;10.35;;
27412;SDS011;14871;52.702;5.230;2022-09-29T06:41:19;13.38;;;10.40;;
27412;SDS011;14871;52.702;5.230;2022-09-29T06:43:45;13.43;;;11.02;;
27412;SDS011;14871;52.702;5.230;2022-09-29T06:46:11;19.35;;;12.10;;
27412;SDS011;14871;52.702;5.230;2022-09-29T06:48:36;14.15;;;11.25;;
27412;SDS011;14871;52.702;5.230;2022-09-29T06:51:05;18.02;;;13.27;;
27412;SDS011;14871;52.702;5.230;2022-09-29T06:53:32;13.13;;;11.43;;
27412;SDS011;14871;52.702;5.230;2022-09-29T06:55:57;18.02;;;13.88;;
27412;SDS011;14871;52.702;5.230;2022-09-29T06:58:25;17.70;;;13.43;;
27412;SDS011;14871;52.702;5.230;2022-09-29T07:00:51;16.95;;;12.85;;
27412;SDS011;14871;52.702;5.230;2022-09-29T07:03:16;17.23;;;12.82;;
27412;SDS011;14871;52.702;5.230;2022-09-29T07:05:42;16.00;;;12.73;;
27412;SDS011;14871;52.702;5.230;2022-09-29T07:08:07;18.30;;;12.73;;
27412;SDS011;14871;52.702;5.230;2022-09-29T07:10:33;17.00;;;12.60;;
27412;SDS011;14871;52.702;5.230;2022-09-29T07:12:59;16.83;;;13.02;;
27412;SDS011;14871;52.702;5.230;2022-09-29T07:15:25;20.00;;;14.10;;
27412;SDS011;14871;52.702;5.230;2022-09-29T07:17:59;21.60;;;16.42;;
27412;SDS011;14871;52.702;5.230;2022-09-29T07:20:26;21.73;;;15.68;;
27412;SDS011;14871;52.702;5.230;2022-09-29T07:22:52;22.08;;;16.13;;
27412;SDS011;14871;52.702;5.230;2022-09-29T07:25:18;20.88;;;16.23;;
27412;SDS011;14871;52.702;5.230;2022-09-29T07:27:44;20.23;;;15.25;;
27412;SDS011;14871;52.702;5.230;2022-09-29T07:30:11;23.52;;;16.50;;
27412;SDS011;14871;52.702;5.230;2022-09-29T07:32:36;23.08;;;16.50;;
27412;SDS011;14871;52.702;5.230;2022-09-29T07:35:02;23.52;;;17.10;;
27412;SDS011;14871;52.702;5.230;2022-09-29T07:37:29;22.90;;;17.75;;
27412;SDS011;14871;52.702;5.230;2022-09-29T07:39:55;22.52;;;16.23;;
27412;SDS011;14871;52.702;5.230;2022-09-29T07:42:20;22.05;;;16.88;;
27412;SDS011;14871;52.702;5.230;2022-09-29T07:44:46;23.48;;;15.23;;
27412;SDS011;14871;52.702;5.230;2022-09-29T07:47:12;17.85;;;15.15;;
27412;SDS011;14871;52.702;5.230;2022-09-29T07:49:39;18.45;;;15.60;;
27412;SDS011;14871;52.702;5.230;2022-09-29T07:52:05;18.73;;;14.77;;
27412;SDS011;14871;52.702;5.230;2022-09-29T07:54:31;16.58;;;13.65;;
27412;SDS011;14871;52.702;5.230;2022-09-29T07:56:57;17.73;;;14.90;;
27412;SDS011;14871;52.702;5.230;2022-09-29T07:59:25;16.98;;;13.00;;
27412;SDS011;14871;52.702;5.230;2022-09-29T08:01:51;14.75;;;12.60;;
27412;SDS011;14871;52.702;5.230;2022-09-29T08:04:17;19.08;;;13.55;;
27412;SDS011;14871;52.702;5.230;2022-09-29T08:06:43;18.38;;;11.68;;
27412;SDS011;14871;52.702;5.230;2022-09-29T08:09:08;14.85;;;11.32;;
27412;SDS011;14871;52.702;5.230;2022-09-29T08:11:37;18.10;;;12.82;;
27412;SDS011;14871;52.702;5.230;2022-09-29T08:14:06;14.00;;;11.20;;
27412;SDS011;14871;52.702;5.230;2022-09-29T08:16:33;14.30;;;11.20;;
27412;SDS011;14871;52.702;5.230;2022-09-29T08:18:59;12.43;;;10.73;;
27412;SDS011;14871;52.702;5.230;2022-09-29T08:21:25;13.98;;;12.38;;
27412;SDS011;14871;52.702;5.230;2022-09-29T08:23:52;14.13;;;11.50;;
27412;SDS011;14871;52.702;5.230;2022-09-29T08:26:19;13.75;;;11.05;;
27412;SDS011;14871;52.702;5.230;2022-09-29T08:28:46;15.55;;;11.43;;
27412;SDS011;14871;52.702;5.230;2022-09-29T08:31:12;15.35;;;11.52;;
27412;SDS011;14871;52.702;5.230;2022-09-29T08:33:43;16.20;;;11.75;;
27412;SDS011;14871;52.702;5.230;2022-09-29T08:36:09;14.85;;;11.23;;
27412;SDS011;14871;52.702;5.230;2022-09-29T08:38:41;15.15;;;11.68;;
27412;SDS011;14871;52.702;5.230;2022-09-29T08:44:26;12.50;;;9.88;;
27412;SDS011;14871;52.702;5.230;2022-09-29T08:47:22;12.55;;;10.18;;
27412;SDS011;14871;52.702;5.230;2022-09-29T08:52:12;10.57;;;8.20;;
27412;SDS011;14871;52.702;5.230;2022-09-29T08:54:42;7.43;;;6.00;;
27412;SDS011;14871;52.702;5.230;2022-09-29T08:57:13;8.82;;;6.68;;
27412;SDS011;14871;52.702;5.230;2022-09-29T08:59:51;10.30;;;8.48;;
27412;SDS011;14871;52.702;5.230;2022-09-29T09:10:28;11.70;;;10.50;;
27412;SDS011;14871;52.702;5.230;2022-09-29T09:21:21;12.52;;;11.10;;
27412;SDS011;14871;52.702;5.230;2022-09-29T09:26:16;11.80;;;10.60;;
27412;SDS011;14871;52.702;5.230;2022-09-29T09:28:54;10.82;;;9.52;;
27412;SDS011;14871;52.702;5.230;2022-09-29T09:33:59;12.45;;;10.13;;
27412;SDS011;14871;52.702;5.230;2022-09-29T09:36:40;10.38;;;8.85;;
27412;SDS011;14871;52.702;5.230;2022-09-29T09:39:15;10.93;;;9.45;;
27412;SDS011;14871;52.702;5.230;2022-09-29T09:41:50;9.75;;;8.75;;
27412;SDS011;14871;52.702;5.230;2022-09-29T09:44:19;10.00;;;8.68;;
27412;SDS011;14871;52.702;5.230;2022-09-29T09:46:49;9.48;;;8.57;;
27412;SDS011;14871;52.702;5.230;2022-09-29T09:49:44;9.43;;;8.52;;
27412;SDS011;14871;52.702;5.230;2022-09-29T09:53:02;8.93;;;7.72;;
27412;SDS011;14871;52.702;5.230;2022-09-29T09:55:05;10.30;;;8.52;;
27412;SDS011;14871;52.702;5.230;2022-09-29T09:57:46;6.88;;;6.00;;
27412;SDS011;14871;52.702;5.230;2022-09-29T10:00:19;9.30;;;6.63;;
27412;SDS011;14871;52.702;5.230;2022-09-29T10:02:53;7.82;;;6.25;;
27412;SDS011;14871;52.702;5.230;2022-09-29T10:05:20;7.05;;;5.60;;
27412;SDS011;14871;52.702;5.230;2022-09-29T10:07:51;3.20;;;2.90;;
27412;SDS011;14871;52.702;5.230;2022-09-29T10:10:21;7.80;;;5.25;;
27412;SDS011;14871;52.702;5.230;2022-09-29T10:12:55;7.03;;;6.32;;
27412;SDS011;14871;52.702;5.230;2022-09-29T10:15:35;10.13;;;6.65;;
27412;SDS011;14871;52.702;5.230;2022-09-29T10:21:01;6.75;;;5.97;;
27412;SDS011;14871;52.702;5.230;2022-09-29T10:26:02;7.47;;;6.72;;
27412;SDS011;14871;52.702;5.230;2022-09-29T10:28:42;7.07;;;6.38;;
27412;SDS011;14871;52.702;5.230;2022-09-29T10:31:15;7.38;;;6.15;;
27412;SDS011;14871;52.702;5.230;2022-09-29T10:33:48;5.05;;;4.50;;
27412;SDS011;14871;52.702;5.230;2022-09-29T10:36:30;6.35;;;5.75;;
27412;SDS011;14871;52.702;5.230;2022-09-29T10:39:28;6.32;;;5.18;;
27412;SDS011;14871;52.702;5.230;2022-09-29T10:41:54;4.93;;;4.18;;
27412;SDS011;14871;52.702;5.230;2022-09-29T10:44:20;6.63;;;4.85;;
27412;SDS011;14871;52.702;5.230;2022-09-29T10:46:47;6.65;;;4.93;;
27412;SDS011;14871;52.702;5.230;2022-09-29T10:51:49;5.15;;;4.65;;
27412;SDS011;14871;52.702;5.230;2022-09-29T10:54:19;6.88;;;5.25;;
27412;SDS011;14871;52.702;5.230;2022-09-29T10:56:49;7.25;;;4.80;;
27412;SDS011;14871;52.702;5.230;2022-09-29T10:59:16;4.38;;;3.97;;
27412;SDS011;14871;52.702;5.230;2022-09-29T11:01:44;5.07;;;4.40;;
27412;SDS011;14871;52.702;5.230;2022-09-29T11:04:18;4.80;;;4.30;;
27412;SDS011;14871;52.702;5.230;2022-09-29T11:06:54;6.55;;;5.40;;
27412;SDS011;14871;52.702;5.230;2022-09-29T11:11:51;7.05;;;5.03;;
27412;SDS011;14871;52.702;5.230;2022-09-29T11:16:51;6.55;;;5.50;;
27412;SDS011;14871;52.702;5.230;2022-09-29T11:19:19;6.82;;;5.25;;
27412;SDS011;14871;52.702;5.230;2022-09-29T11:31:07;8.40;;;4.85;;
27412;SDS011;14871;52.702;5.230;2022-09-29T11:33:57;6.10;;;4.30;;
27412;SDS011;14871;52.702;5.230;2022-09-29T11:39:34;6.38;;;4.45;;
27412;SDS011;14871;52.702;5.230;2022-09-29T11:44:58;4.00;;;3.22;;
27412;SDS011;14871;52.702;5.230;2022-09-29T11:50:31;5.07;;;3.13;;
27412;SDS011;14871;52.702;5.230;2022-09-29T11:53:23;4.63;;;3.05;;
27412;SDS011;14871;52.702;5.230;2022-09-29T11:56:23;4.28;;;2.95;;
27412;SDS011;14871;52.702;5.230;2022-09-29T12:04:22;4.25;;;2.40;;
27412;SDS011;14871;52.702;5.230;2022-09-29T12:07:25;2.78;;;2.47;;
27412;SDS011;14871;52.702;5.230;2022-09-29T12:10:15;2.72;;;1.92;;
27412;SDS011;14871;52.702;5.230;2022-09-29T12:16:14;2.80;;;1.80;;
27412;SDS011;14871;52.702;5.230;2022-09-29T12:18:15;3.05;;;2.00;;
27412;SDS011;14871;52.702;5.230;2022-09-29T12:20:51;2.70;;;1.40;;
27412;SDS011;14871;52.702;5.230;2022-09-29T12:23:19;2.28;;;1.45;;
27412;SDS011;14871;52.702;5.230;2022-09-29T12:25:51;2.78;;;1.80;;
27412;SDS011;14871;52.702;5.230;2022-09-29T12:28:23;4.05;;;1.70;;
27412;SDS011;14871;52.702;5.230;2022-09-29T12:30:56;11.35;;;5.05;;
27412;SDS011;14871;52.702;5.230;2022-09-29T12:33:36;3.28;;;2.28;;
27412;SDS011;14871;52.702;5.230;2022-09-29T12:44:36;12.45;;;4.18;;
27412;SDS011;14871;52.702;5.230;2022-09-29T12:47:40;5.68;;;1.60;;
27412;SDS011;14871;52.702;5.230;2022-09-29T12:55:38;3.65;;;1.70;;
27412;SDS011;14871;52.702;5.230;2022-09-29T12:58:13;2.40;;;1.40;;
27412;SDS011;14871;52.702;5.230;2022-09-29T13:12:09;1.65;;;1.13;;
27412;SDS011;14871;52.702;5.230;2022-09-29T13:23:15;0.88;;;0.80;;
27412;SDS011;14871;52.702;5.230;2022-09-29T13:29:12;2.10;;;0.82;;
27412;SDS011;14871;52.702;5.230;2022-09-29T13:31:41;1.27;;;0.68;;
27412;SDS011;14871;52.702;5.230;2022-09-29T13:34:16;2.38;;;0.80;;
27412;SDS011;14871;52.702;5.230;2022-09-29T13:36:53;2.55;;;0.93;;
27412;SDS011;14871;52.702;5.230;2022-09-29T13:39:29;1.92;;;0.90;;
27412;SDS011;14871;52.702;5.230;2022-09-29T13:41:55;1.02;;;0.70;;
27412;SDS011;14871;52.702;5.230;2022-09-29T13:44:24;3.17;;;0.70;;
27412;SDS011;14871;52.702;5.230;2022-09-29T13:46:52;2.53;;;0.70;;
27412;SDS011;14871;52.702;5.230;2022-09-29T13:49:23;3.13;;;0.43;;
27412;SDS011;14871;52.702;5.230;2022-09-29T13:51:51;0.40;;;0.32;;
27412;SDS011;14871;52.702;5.230;2022-09-29T13:54:32;0.40;;;0.40;;
27412;SDS011;14871;52.702;5.230;2022-09-29T13:57:21;0.73;;;0.40;;
27412;SDS011;14871;52.702;5.230;2022-09-29T14:05:34;1.45;;;0.25;;
27412;SDS011;14871;52.702;5.230;2022-09-29T14:10:23;1.27;;;0.40;;
27412;SDS011;14871;52.702;5.230;2022-09-29T14:12:56;1.40;;;0.50;;
27412;SDS011;14871;52.702;5.230;2022-09-29T14:15:32;0.40;;;0.32;;
27412;SDS011;14871;52.702;5.230;2022-09-29T14:18:03;1.73;;;0.90;;
27412;SDS011;14871;52.702;5.230;2022-09-29T14:20:37;0.75;;;0.40;;
27412;SDS011;14871;52.702;5.230;2022-09-29T14:23:04;1.50;;;0.40;;
27412;SDS011;14871;52.702;5.230;2022-09-29T14:25:33;0.93;;;0.50;;
27412;SDS011;14871;52.702;5.230;2022-09-29T14:28:22;0.32;;;0.22;;
27412;SDS011;14871;52.702;5.230;2022-09-29T14:30:55;0.85;;;0.57;;
27412;SDS011;14871;52.702;5.230;2022-09-29T14:33:44;1.58;;;0.50;;
27412;SDS011;14871;52.702;5.230;2022-09-29T14:36:15;1.98;;;0.57;;
27412;SDS011;14871;52.702;5.230;2022-09-29T14:38:51;0.60;;;0.20;;
27412;SDS011;14871;52.702;5.230;2022-09-29T14:41:24;0.65;;;0.30;;
27412;SDS011;14871;52.702;5.230;2022-09-29T15:06:21;1.83;;;0.52;;
27412;SDS011;14871;52.702;5.230;2022-09-29T15:08:53;1.13;;;0.65;;
27412;SDS011;14871;52.702;5.230;2022-09-29T15:11:31;7.10;;;3.00;;
27412;SDS011;14871;52.702;5.230;2022-09-29T15:14:00;8.35;;;3.47;;
27412;SDS011;14871;52.702;5.230;2022-09-29T15:25:16;4.53;;;1.52;;
27412;SDS011;14871;52.702;5.230;2022-09-29T15:27:46;1.50;;;0.70;;
27412;SDS011;14871;52.702;5.230;2022-09-29T15:30:16;3.08;;;1.30;;
27412;SDS011;14871;52.702;5.230;2022-09-29T15:32:44;2.35;;;1.30;;
27412;SDS011;14871;52.702;5.230;2022-09-29T15:35:13;4.15;;;1.77;;
27412;SDS011;14871;52.702;5.230;2022-09-29T15:40:15;1.63;;;1.02;;
27412;SDS011;14871;52.702;5.230;2022-09-29T15:42:42;2.50;;;0.90;;
27412;SDS011;14871;52.702;5.230;2022-09-29T15:45:08;1.95;;;0.75;;
27412;SDS011;14871;52.702;5.230;2022-09-29T15:47:41;1.67;;;1.05;;
27412;SDS011;14871;52.702;5.230;2022-09-29T15:52:43;0.80;;;0.50;;
27412;SDS011;14871;52.702;5.230;2022-09-29T15:55:12;2.13;;;0.43;;
27412;SDS011;14871;52.702;5.230;2022-09-29T16:00:41;0.75;;;0.50;;
27412;SDS011;14871;52.702;5.230;2022-09-29T16:03:07;1.05;;;0.30;;
27412;SDS011;14871;52.702;5.230;2022-09-29T16:05:40;2.10;;;0.68;;
27412;SDS011;14871;52.702;5.230;2022-09-29T16:10:52;2.75;;;0.80;;
27412;SDS011;14871;52.702;5.230;2022-09-29T16:13:22;1.77;;;0.40;;
27412;SDS011;14871;52.702;5.230;2022-09-29T16:15:58;0.65;;;0.30;;
27412;SDS011;14871;52.702;5.230;2022-09-29T16:21:08;0.82;;;0.40;;
27412;SDS011;14871;52.702;5.230;2022-09-29T16:23:40;0.75;;;0.70;;
27412;SDS011;14871;52.702;5.230;2022-09-29T16:29:04;15.70;;;3.38;;
27412;SDS011;14871;52.702;5.230;2022-09-29T16:31:42;8.02;;;1.30;;
27412;SDS011;14871;52.702;5.230;2022-09-29T16:36:59;11.65;;;1.67;;
27412;SDS011;14871;52.702;5.230;2022-09-29T16:39:43;22.13;;;3.70;;
27412;SDS011;14871;52.702;5.230;2022-09-29T16:42:19;14.98;;;2.88;;
27412;SDS011;14871;52.702;5.230;2022-09-29T16:44:48;10.00;;;1.90;;
27412;SDS011;14871;52.702;5.230;2022-09-29T16:47:23;3.65;;;1.30;;
27412;SDS011;14871;52.702;5.230;2022-09-29T16:49:55;1.77;;;0.93;;
27412;SDS011;14871;52.702;5.230;2022-09-29T16:52:23;5.97;;;1.63;;
27412;SDS011;14871;52.702;5.230;2022-09-29T16:54:53;36.13;;;15.05;;
27412;SDS011;14871;52.702;5.230;2022-09-29T16:57:31;27.95;;;16.98;;
27412;SDS011;14871;52.702;5.230;2022-09-29T17:00:05;10.93;;;2.20;;
27412;SDS011;14871;52.702;5.230;2022-09-29T17:02:35;7.25;;;1.55;;
27412;SDS011;14871;52.702;5.230;2022-09-29T17:05:01;6.15;;;2.38;;
27412;SDS011;14871;52.702;5.230;2022-09-29T17:07:29;14.45;;;6.90;;
27412;SDS011;14871;52.702;5.230;2022-09-29T17:09:57;17.70;;;10.52;;
27412;SDS011;14871;52.702;5.230;2022-09-29T17:12:24;17.42;;;10.85;;
27412;SDS011;14871;52.702;5.230;2022-09-29T17:14:52;21.25;;;12.30;;
27412;SDS011;14871;52.702;5.230;2022-09-29T17:17:27;22.02;;;12.75;;
27412;SDS011;14871;52.702;5.230;2022-09-29T17:19:54;15.27;;;10.13;;
27412;SDS011;14871;52.702;5.230;2022-09-29T17:24:56;15.38;;;9.43;;
27412;SDS011;14871;52.702;5.230;2022-09-29T17:27:23;14.50;;;9.13;;
27412;SDS011;14871;52.702;5.230;2022-09-29T17:30:07;23.27;;;14.48;;
27412;SDS011;14871;52.702;5.230;2022-09-29T17:32:34;25.30;;;16.00;;
27412;SDS011;14871;52.702;5.230;2022-09-29T17:35:01;38.85;;;24.98;;
27412;SDS011;14871;52.702;5.230;2022-09-29T17:37:27;36.65;;;24.83;;
27412;SDS011;14871;52.702;5.230;2022-09-29T17:39:53;31.23;;;21.48;;
27412;SDS011;14871;52.702;5.230;2022-09-29T17:42:20;18.55;;;12.85;;
27412;SDS011;14871;52.702;5.230;2022-09-29T17:44:50;14.25;;;9.68;;
27412;SDS011;14871;52.702;5.230;2022-09-29T17:47:16;11.80;;;9.10;;
27412;SDS011;14871;52.702;5.230;2022-09-29T17:49:43;12.25;;;9.02;;
27412;SDS011;14871;52.702;5.230;2022-09-29T17:52:15;11.00;;;8.20;;
27412;SDS011;14871;52.702;5.230;2022-09-29T17:54:43;10.40;;;8.18;;
27412;SDS011;14871;52.702;5.230;2022-09-29T17:57:17;10.10;;;7.47;;
27412;SDS011;14871;52.702;5.230;2022-09-29T17:59:46;10.35;;;7.10;;
27412;SDS011;14871;52.702;5.230;2022-09-29T18:02:11;8.85;;;7.10;;
27412;SDS011;14871;52.702;5.230;2022-09-29T18:04:38;17.95;;;10.68;;
27412;SDS011;14871;52.702;5.230;2022-09-29T18:07:08;15.23;;;10.93;;
27412;SDS011;14871;52.702;5.230;2022-09-29T18:09:35;16.10;;;12.23;;
27412;SDS011;14871;52.702;5.230;2022-09-29T18:12:03;23.13;;;15.63;;
27412;SDS011;14871;52.702;5.230;2022-09-29T18:14:28;21.98;;;15.25;;
27412;SDS011;14871;52.702;5.230;2022-09-29T18:16:59;21.52;;;15.93;;